Time;durP1;ratioP1;P1;durP2;ratioP2;P2;SDS_P1;SDS_P2;PMS_P1;PMS_P2;Temp;Humidity;BMP_temperature;BMP_pressure;BME280_temperature;BME280_humidity;BME280_pressure;Samples;Min_cycle;Max_cycle;Signal;HPM_P1;HPM_P2
2024/03/08 00:00:20;;;;;;;42.30;27.60;;;;;;;3.67;89.71;100979.46;183284;1236;45942;-88
2024/03/08 00:04:44;;;;;;;42.40;27.80;;;;;;;3.65;88.61;100979.05;182918;1238;46023;-87
2024/03/08 00:08:47;;;;;;;43.40;28.10;;;;;;;3.61;89.29;100978.98;183360;1240;45991;-88
2024/03/08 00:12:50;;;;;;;37.80;25.20;;;;;;;3.61;88.31;100979.89;183277;1240;58133;-89
2024/03/08 00:16:54;;;;;;;40.20;26.60;;;;;;;3.58;87.77;100973.89;182919;1237;46204;-89
2024/03/08 00:20:56;;;;;;;36.10;23.40;;;;;;;3.52;87.52;100968.69;183492;1236;44049;-86
2024/03/08 00:24:58;;;;;;;44.00;28.00;;;;;;;3.46;87.48;100967.17;183480;1236;45881;-88
2024/03/08 00:29:00;;;;;;;41.40;26.70;;;;;;;3.35;87.25;100970.61;183350;1238;45912;-87
2024/03/08 00:33:02;;;;;;;57.60;31.70;;;;;;;3.21;87.02;100970.45;182916;1238;58052;-89
2024/03/08 00:37:04;;;;;;;55.50;30.90;;;;;;;3.09;87.39;100972.87;183895;1238;46116;-88
2024/03/08 00:41:07;;;;;;;50.00;30.70;;;;;;;3.01;88.12;100968.11;183225;1240;44037;-86
2024/03/08 00:45:10;;;;;;;55.90;30.40;;;;;;;2.91;89.22;100968.10;183287;1240;45280;-87
2024/03/08 00:49:13;;;;;;;49.70;31.40;;;;;;;2.82;89.73;100968.33;183192;1238;44684;-90
2024/03/08 00:53:16;;;;;;;59.00;32.90;;;;;;;2.71;90.00;100965.02;182746;1237;58817;-88
2024/03/08 00:57:18;;;;;;;65.40;35.10;;;;;;;2.61;90.57;100965.42;182742;1237;45997;-89
2024/03/08 01:01:20;;;;;;;48.60;32.70;;;;;;;2.52;90.90;100962.04;183193;1238;45958;-87
2024/03/08 01:05:24;;;;;;;52.90;29.60;;;;;;;2.49;91.18;100958.16;183059;1241;46006;-87
2024/03/08 01:09:27;;;;;;;47.40;30.80;;;;;;;2.45;90.88;100953.20;183483;1238;44601;-88
2024/03/08 01:13:29;;;;;;;48.50;29.40;;;;;;;2.38;90.76;100955.04;182842;1240;58269;-89
2024/03/08 01:17:31;;;;;;;59.90;35.20;;;;;;;2.25;91.66;100948.69;182707;1240;46945;-87
2024/03/08 01:21:34;;;;;;;57.70;31.10;;;;;;;2.12;92.51;100948.10;182786;1238;44027;-89
2024/03/08 01:25:36;;;;;;;65.60;37.50;;;;;;;1.99;93.78;100940.53;182304;1241;45993;-89
2024/03/08 01:29:38;;;;;;;50.40;30.90;;;;;;;1.88;94.78;100934.79;182560;1240;46005;-90
2024/03/08 01:33:40;;;;;;;48.90;31.80;;;;;;;1.79;95.60;100931.75;182675;1237;59282;-88
2024/03/08 01:37:42;;;;;;;47.80;30.60;;;;;;;1.76;95.84;100927.64;182786;1238;46008;-85
2024/03/08 01:41:44;;;;;;;52.40;31.70;;;;;;;1.73;96.17;100927.41;182674;1241;46095;-89
2024/03/08 01:45:47;;;;;;;46.60;31.00;;;;;;;1.71;96.33;100926.62;183158;1240;45990;-87
2024/03/08 01:49:52;;;;;;;46.60;29.90;;;;;;;1.67;96.45;100919.73;183256;1237;46094;-88
2024/03/08 01:53:57;;;;;;;55.00;30.70;;;;;;;1.64;96.66;100914.80;183193;1240;58118;-89
2024/03/08 01:57:59;;;;;;;61.70;32.70;;;;;;;1.52;97.30;100912.92;183037;1239;46119;-89
2024/03/08 02:02:03;;;;;;;55.90;33.40;;;;;;;1.49;97.90;100912.48;183365;1240;46424;-90
2024/03/08 02:06:08;;;;;;;50.60;32.40;;;;;;;1.47;98.23;100906.60;183546;1237;46098;-88
2024/03/08 02:10:12;;;;;;;46.20;31.50;;;;;;;1.43;98.29;100904.13;184224;1237;46087;-88
2024/03/08 02:14:14;;;;;;;52.00;35.00;;;;;;;1.33;99.26;100904.46;183546;1241;59514;-89
2024/03/08 02:18:17;;;;;;;54.20;32.30;;;;;;;1.22;99.86;100906.05;183893;1241;46086;-87
2024/03/08 02:22:19;;;;;;;59.10;35.50;;;;;;;1.20;100.00;100905.95;183727;1238;44304;-89
2024/03/08 02:26:22;;;;;;;60.20;36.20;;;;;;;1.13;100.00;100903.89;184211;1238;44486;-90
2024/03/08 02:30:25;;;;;;;58.80;36.40;;;;;;;1.16;100.00;100906.23;183962;1240;45903;-89
2024/03/08 02:34:27;;;;;;;51.60;31.50;;;;;;;1.22;100.00;100908.14;183747;1238;57995;-90
2024/03/08 02:38:29;;;;;;;53.60;32.90;;;;;;;1.23;100.00;100906.52;183734;1238;44562;-89
2024/03/08 02:42:32;;;;;;;54.90;34.10;;;;;;;1.16;100.00;100904.66;183362;1240;46095;-87
2024/03/08 02:46:35;;;;;;;63.40;36.10;;;;;;;1.09;100.00;100905.75;183625;1239;45922;-89
2024/03/08 02:50:40;;;;;;;49.20;32.80;;;;;;;1.07;100.00;100904.44;183610;1240;44635;-89
2024/03/08 02:54:43;;;;;;;56.20;36.10;;;;;;;1.03;100.00;100901.59;183368;1237;59813;-88
2024/03/08 02:58:48;;;;;;;61.90;35.70;;;;;;;0.96;100.00;100899.36;183812;1240;45938;-88
2024/03/08 03:02:53;;;;;;;52.20;37.80;;;;;;;0.84;100.00;100898.70;183124;1236;44675;-88
2024/03/08 03:06:56;;;;;;;70.00;39.20;;;;;;;0.73;100.00;100894.84;183341;1238;45353;-87
2024/03/08 03:10:58;;;;;;;56.10;33.20;;;;;;;0.65;100.00;100890.56;183327;1241;44113;-88
2024/03/08 03:15:00;;;;;;;57.30;34.20;;;;;;;0.62;100.00;100891.53;183168;1238;58062;-90
2024/03/08 03:19:05;;;;;;;59.60;37.10;;;;;;;0.60;100.00;100886.17;183096;1238;46007;-88
2024/03/08 03:23:08;;;;;;;58.50;35.80;;;;;;;0.59;100.00;100884.46;183592;1238;46068;-89
2024/03/08 03:27:11;;;;;;;63.40;41.80;;;;;;;0.60;100.00;100888.44;183773;1238;46023;-90
2024/03/08 03:31:14;;;;;;;54.80;33.90;;;;;;;0.64;100.00;100887.95;183995;1240;44422;-87
2024/03/08 03:35:18;;;;;;;56.20;33.40;;;;;;;0.66;100.00;100889.11;183181;1238;58550;-90
2024/03/08 03:39:22;;;;;;;57.10;35.70;;;;;;;0.66;100.00;100890.33;183417;1238;45985;-89
2024/03/08 03:43:25;;;;;;;66.40;40.60;;;;;;;0.66;100.00;100889.13;183452;1238;46046;-89
2024/03/08 03:47:27;;;;;;;55.00;36.50;;;;;;;0.68;100.00;100885.05;183218;1241;46109;-89
2024/03/08 03:51:30;;;;;;;60.70;36.30;;;;;;;0.68;100.00;100891.83;182969;1237;46096;-88
2024/03/08 03:55:32;;;;;;;58.70;35.30;;;;;;;0.66;100.00;100885.09;183634;1237;59902;-90
2024/03/08 03:59:38;;;;;;;;;;;;;;;0.67;100.00;100890.98;183763;1236;46018;-89
2024/03/08 04:03:43;;;;;;;52.60;34.30;;;;;;;0.65;100.00;100888.80;183751;1238;45844;-88
2024/03/08 04:07:45;;;;;;;65.40;36.00;;;;;;;0.60;100.00;100884.06;182995;1238;45954;-87
2024/03/08 04:11:47;;;;;;;56.90;34.40;;;;;;;0.53;100.00;100885.31;183609;1237;44741;-89
2024/03/08 04:15:49;;;;;;;55.90;34.20;;;;;;;0.50;100.00;100881.56;183422;1238;58170;-88
2024/03/08 04:19:52;;;;;;;53.70;35.00;;;;;;;0.51;100.00;100882.60;182492;1237;46006;-86
2024/03/08 04:23:55;;;;;;;52.30;35.00;;;;;;;0.51;100.00;100882.40;182176;1240;45877;-90
2024/03/08 04:27:57;;;;;;;79.60;40.40;;;;;;;0.52;100.00;100879.60;182421;1238;46060;-89
2024/03/08 04:31:59;;;;;;;54.30;33.10;;;;;;;0.49;100.00;100878.96;182690;1237;46175;-90
2024/03/08 04:36:04;;;;;;;66.80;38.10;;;;;;;0.46;100.00;100877.17;183764;1238;59160;-90
2024/03/08 04:40:07;;;;;;;51.80;31.10;;;;;;;0.46;100.00;100873.14;183271;1237;45931;-90
2024/03/08 04:44:12;;;;;;;53.40;34.70;;;;;;;0.45;100.00;100874.58;183517;1237;44237;-88
2024/03/08 04:48:15;;;;;;;43.60;31.30;;;;;;;0.43;100.00;100879.16;182305;1238;45963;-85
2024/03/08 04:52:17;;;;;;;50.70;32.20;;;;;;;0.31;100.00;100881.09;182741;1237;45993;-89
2024/03/08 04:56:19;;;;;;;48.10;30.50;;;;;;;0.01;100.00;100880.88;182123;1239;59746;-89
2024/03/08 05:00:21;;;;;;;53.00;38.10;;;;;;;-0.06;100.00;100877.09;182294;1238;46110;-88
2024/03/08 05:04:23;;;;;;;56.30;34.90;;;;;;;-0.09;100.00;100881.86;182408;1241;46096;-89
2024/03/08 05:08:25;;;;;;;62.40;39.20;;;;;;;-0.05;100.00;100879.48;182536;1238;46074;-88
2024/03/08 05:12:28;;;;;;;67.90;43.70;;;;;;;0.05;100.00;100884.27;183245;1238;46117;-89
2024/03/08 05:16:30;;;;;;;72.60;44.60;;;;;;;0.13;100.00;100882.30;182803;1241;57979;-89
2024/03/08 05:20:32;;;;;;;63.00;39.40;;;;;;;0.21;100.00;100880.84;182012;1240;46022;-85
2024/03/08 05:24:34;;;;;;;65.30;37.90;;;;;;;0.23;100.00;100874.15;183063;1240;45972;-88
2024/03/08 05:28:36;;;;;;;59.30;37.00;;;;;;;0.30;100.00;100871.17;182465;1239;46109;-88
2024/03/08 05:32:39;;;;;;;61.40;36.90;;;;;;;0.34;100.00;100875.07;181882;1238;45973;-87
2024/03/08 05:36:44;;;;;;;54.80;35.90;;;;;;;0.37;100.00;100872.52;181941;1241;59494;-87
2024/03/08 05:40:46;;;;;;;62.20;35.70;;;;;;;0.40;100.00;100869.30;183101;1238;43874;-85
2024/03/08 05:44:47;;;;;;;54.70;32.50;;;;;;;0.43;100.00;100862.58;182679;1238;45240;-88
2024/03/08 05:48:49;;;;;;;53.80;34.30;;;;;;;0.43;100.00;100865.90;182443;1238;44073;-87
2024/03/08 05:52:52;;;;;;;61.50;33.80;;;;;;;0.42;100.00;100872.39;182948;1238;45951;-87
2024/03/08 05:56:54;;;;;;;48.60;33.80;;;;;;;0.45;100.00;100870.38;183078;1238;58220;-88
2024/03/08 06:00:56;;;;;;;48.50;31.00;;;;;;;0.53;100.00;100870.31;184334;1238;45800;-88
2024/03/08 06:04:58;;;;;;;47.50;32.80;;;;;;;0.61;100.00;100870.91;183077;1237;46651;-87
2024/03/08 06:09:00;;;;;;;57.60;36.30;;;;;;;0.73;100.00;100870.04;182256;1238;46096;-85
2024/03/08 06:13:02;;;;;;;51.40;31.60;;;;;;;0.85;100.00;100871.05;182240;1238;45894;-87
2024/03/08 06:17:07;;;;;;;60.00;40.40;;;;;;;0.93;100.00;100868.70;182806;1237;58313;-87
2024/03/08 06:21:11;;;;;;;59.10;37.90;;;;;;;0.97;100.00;100875.20;182508;1236;46005;-88
2024/03/08 06:25:16;;;;;;;67.20;40.70;;;;;;;0.99;100.00;100870.63;181928;1237;45973;-88
2024/03/08 06:29:18;;;;;;;66.90;41.50;;;;;;;1.05;100.00;100873.75;182256;1239;46328;-88
2024/03/08 06:33:20;;;;;;;61.90;42.70;;;;;;;1.05;100.00;100868.67;182312;1240;45881;-89
2024/03/08 06:37:23;;;;;;;73.50;43.50;;;;;;;1.13;100.00;100872.79;182561;1238;59633;-86
2024/03/08 06:41:25;;;;;;;75.60;43.60;;;;;;;1.21;100.00;100868.17;182125;1237;46070;-88
2024/03/08 06:45:28;;;;;;;68.40;40.10;;;;;;;1.23;100.00;100867.73;182303;1240;46023;-88
2024/03/08 06:49:31;;;;;;;66.00;41.70;;;;;;;1.34;100.00;100863.55;182253;1237;46126;-88
2024/03/08 06:53:35;;;;;;;64.40;41.90;;;;;;;1.53;100.00;100861.33;182013;1240;46062;-87
2024/03/08 06:57:37;;;;;;;63.80;44.40;;;;;;;1.79;100.00;100863.55;182237;1238;59822;-86
2024/03/08 07:01:38;;;;;;;66.10;41.30;;;;;;;1.98;100.00;100867.40;182074;1236;46117;-88
2024/03/08 07:05:40;;;;;;;68.10;42.40;;;;;;;2.16;99.52;100866.41;182258;1237;46117;-87
2024/03/08 07:09:45;;;;;;;83.80;58.70;;;;;;;2.34;97.79;100863.83;182040;1237;45981;-88
2024/03/08 07:13:47;;;;;;;56.30;39.30;;;;;;;2.46;97.56;100862.83;182040;1241;45979;-87
2024/03/08 07:17:52;;;;;;;65.90;40.00;;;;;;;2.51;97.03;100863.67;182619;1236;58716;-88
2024/03/08 07:21:55;;;;;;;70.70;45.60;;;;;;;2.45;97.27;100867.77;181983;1239;46154;-86
2024/03/08 07:25:57;;;;;;;65.10;43.10;;;;;;;2.53;97.30;100874.28;181995;1241;46074;-89
2024/03/08 07:30:00;;;;;;;67.80;41.70;;;;;;;2.64;97.98;100874.20;182904;1236;45883;-87
2024/03/08 07:34:07;;;;;;;62.40;40.50;;;;;;;2.72;97.29;100872.67;182146;1240;45935;-87
2024/03/08 07:38:09;;;;;;;61.80;41.30;;;;;;;2.70;98.06;100873.46;181995;1239;58013;-86
2024/03/08 07:42:12;;;;;;;57.80;39.60;;;;;;;2.76;98.26;100868.00;182437;1236;46021;-87
2024/03/08 07:46:14;;;;;;;71.50;41.40;;;;;;;2.78;96.69;100859.33;182628;1236;45976;-86
2024/03/08 07:50:16;;;;;;;71.60;41.00;;;;;;;2.91;97.06;100857.39;182833;1236;45994;-86
2024/03/08 07:54:18;;;;;;;66.80;43.80;;;;;;;2.98;96.02;100857.98;182354;1238;46109;-88
2024/03/08 07:58:20;;;;;;;74.50;45.30;;;;;;;3.12;96.60;100853.91;182189;1237;58240;-87
2024/03/08 08:02:22;;;;;;;78.50;40.10;;;;;;;3.21;95.59;100857.39;181919;1237;46080;-84
2024/03/08 08:06:25;;;;;;;63.20;39.90;;;;;;;3.28;95.75;100851.48;182886;1239;46117;-86
2024/03/08 08:10:28;;;;;;;66.70;41.20;;;;;;;3.39;95.43;100851.38;182617;1236;45853;-88
2024/03/08 08:14:30;;;;;;;58.90;40.80;;;;;;;3.47;95.91;100850.88;182775;1236;46067;-85
2024/03/08 08:18:33;;;;;;;63.10;38.40;;;;;;;3.53;95.05;100847.83;181892;1238;60032;-89
2024/03/08 08:22:35;;;;;;;60.70;43.50;;;;;;;3.68;95.41;100849.11;181922;1237;44369;-87
2024/03/08 08:26:37;;;;;;;63.30;45.50;;;;;;;3.84;94.46;100849.78;182608;1236;45754;-87
2024/03/08 08:30:42;;;;;;;82.10;47.00;;;;;;;4.03;94.48;100847.91;182107;1239;46163;-87
2024/03/08 08:34:44;;;;;;;69.90;46.50;;;;;;;4.10;92.86;100850.38;182622;1238;46116;-87
2024/03/08 08:38:46;;;;;;;77.10;46.40;;;;;;;4.22;93.24;100848.98;181738;1238;57121;-84
2024/03/08 08:42:49;;;;;;;66.90;42.70;;;;;;;4.31;93.16;100853.48;182055;1237;46385;-87
2024/03/08 08:46:52;;;;;;;68.90;45.40;;;;;;;4.41;93.20;100852.84;182444;1236;44804;-87
2024/03/08 08:50:59;;;;;;;;;;;;;;;4.54;91.71;100849.09;182158;1236;46072;-87
2024/03/08 08:55:03;;;;;;;67.70;45.00;;;;;;;4.62;91.72;100847.31;182826;1240;45658;-86
2024/03/08 08:59:05;;;;;;;70.40;46.70;;;;;;;4.70;91.53;100841.62;182661;1236;57786;-85
2024/03/08 09:03:07;;;;;;;63.70;40.20;;;;;;;4.78;91.20;100838.84;182539;1236;46072;-87
2024/03/08 09:07:09;;;;;;;79.20;47.50;;;;;;;4.84;90.80;100830.77;182292;1236;44810;-88
2024/03/08 09:11:11;;;;;;;76.00;44.10;;;;;;;4.93;91.07;100827.86;182645;1237;46113;-86
2024/03/08 09:15:13;;;;;;;55.00;35.20;;;;;;;4.98;89.16;100816.00;182693;1236;45978;-85
2024/03/08 09:19:17;;;;;;;66.50;43.70;;;;;;;5.07;90.38;100811.18;182846;1239;58475;-87
2024/03/08 09:23:22;;;;;;;66.20;43.80;;;;;;;5.21;89.83;100808.02;182901;1238;46176;-88
2024/03/08 09:27:24;;;;;;;69.60;44.20;;;;;;;5.36;89.64;100807.10;183169;1241;44913;-86
2024/03/08 09:31:26;;;;;;;66.90;43.90;;;;;;;5.41;88.81;100799.27;183396;1236;45888;-87
2024/03/08 09:35:29;;;;;;;46.20;32.20;;;;;;;5.53;88.86;100798.14;182612;1241;45944;-87
2024/03/08 09:39:33;;;;;;;70.50;43.90;;;;;;;5.68;88.81;100799.62;182826;1236;57803;-88
2024/03/08 09:43:35;;;;;;;68.40;44.20;;;;;;;5.80;87.68;100797.57;183348;1238;46032;-88
2024/03/08 09:47:42;;;;;;;69.40;44.60;;;;;;;5.97;88.00;100801.98;182552;1239;45091;-88
2024/03/08 09:51:45;;;;;;;67.20;45.80;;;;;;;6.11;86.61;100798.05;182890;1240;44299;-84
2024/03/08 09:55:49;;;;;;;71.80;47.50;;;;;;;6.32;86.44;100799.58;183810;1238;45936;-88
2024/03/08 09:59:51;;;;;;;56.00;38.90;;;;;;;6.49;85.37;100791.97;182832;1238;58004;-87
2024/03/08 10:03:54;;;;;;;72.10;45.00;;;;;;;6.44;83.74;100787.98;182680;1238;46103;-86
2024/03/08 10:07:56;;;;;;;62.20;45.30;;;;;;;6.24;83.57;100784.67;182498;1236;44149;-86
2024/03/08 10:11:59;;;;;;;63.10;40.80;;;;;;;6.09;84.55;100779.87;182375;1240;46011;-86
2024/03/08 10:16:01;;;;;;;62.50;44.10;;;;;;;6.07;84.44;100778.38;182102;1237;46130;-85
2024/03/08 10:20:04;;;;;;;62.50;41.20;;;;;;;6.13;84.23;100776.81;182321;1238;59285;-87
2024/03/08 10:24:10;;;;;;;64.10;44.70;;;;;;;6.35;85.04;100776.17;182374;1237;45960;-86
2024/03/08 10:28:12;;;;;;;60.90;44.60;;;;;;;6.66;84.08;100775.28;182284;1238;45867;-86
2024/03/08 10:32:14;;;;;;;57.50;40.70;;;;;;;6.76;82.25;100778.08;182221;1238;46108;-87
2024/03/08 10:36:16;;;;;;;63.60;45.40;;;;;;;6.78;82.65;100771.98;182619;1238;46069;-86
2024/03/08 10:40:22;;;;;;;57.90;42.30;;;;;;;6.98;82.30;100770.44;182845;1237;59442;-83
2024/03/08 10:44:31;;;;;;;55.00;39.50;;;;;;;7.08;80.06;100772.19;182807;1238;45967;-87
2024/03/08 10:48:43;;;;;;;64.60;40.80;;;;;;;6.98;79.42;100768.84;182735;1240;45943;-87
2024/03/08 10:52:48;;;;;;;50.70;31.40;;;;;;;6.91;79.37;100765.40;181984;1238;46099;-86
2024/03/08 10:56:51;;;;;;;60.80;43.70;;;;;;;6.59;82.69;100768.82;181991;1236;46112;-86
2024/03/08 11:00:56;;;;;;;59.80;42.60;;;;;;;6.69;81.89;100764.73;182087;1236;57759;-85
2024/03/08 11:04:59;;;;;;;56.60;39.30;;;;;;;6.70;80.86;100759.20;182284;1236;45977;-87
2024/03/08 11:09:01;;;;;;;68.10;45.90;;;;;;;6.79;81.70;100744.92;182210;1236;45971;-88
2024/03/08 11:13:03;;;;;;;68.50;44.30;;;;;;;6.88;80.59;100742.63;182818;1236;46062;-87
2024/03/08 11:17:06;;;;;;;52.90;34.00;;;;;;;6.85;80.62;100739.65;183691;1236;46320;-85
2024/03/08 11:21:12;;;;;;;63.60;41.80;;;;;;;6.81;83.20;100732.82;182370;1241;57776;-87
2024/03/08 11:25:36;;;;;;;59.30;39.50;;;;;;;7.00;80.61;100732.96;183348;1240;46006;-87
2024/03/08 11:29:39;;;;;;;66.40;41.20;;;;;;;7.06;78.89;100727.87;182632;1240;241710;-87
2024/03/08 11:33:44;;;;;;;49.00;29.60;;;;;;;7.02;80.01;100720.66;182633;1236;46032;-87
2024/03/08 11:37:47;;;;;;;56.60;36.10;;;;;;;6.99;81.21;100716.23;182478;1237;46104;-86
2024/03/08 11:41:49;;;;;;;64.70;38.60;;;;;;;7.16;79.15;100714.38;182388;1238;58086;-88
2024/03/08 11:46:07;;;;;;;55.00;36.50;;;;;;;7.12;79.15;100708.45;182802;1236;45932;-88
2024/03/08 11:50:11;;;;;;;51.10;34.90;;;;;;;7.13;79.40;100702.55;182457;1236;44042;-88
2024/03/08 11:54:13;;;;;;;50.60;35.20;;;;;;;7.24;77.91;100700.81;181981;1236;46045;-87
2024/03/08 11:58:16;;;;;;;44.60;32.60;;;;;;;7.28;76.43;100690.38;182370;1241;46220;-86
2024/03/08 12:02:19;;;;;;;48.80;32.10;;;;;;;7.30;75.40;100686.52;182105;1236;59490;-88
2024/03/08 12:06:21;;;;;;;43.80;31.90;;;;;;;7.27;73.90;100676.48;183043;1236;44993;-89
2024/03/08 12:10:23;;;;;;;46.10;34.80;;;;;;;7.21;73.04;100669.60;183424;1240;44076;-86
2024/03/08 12:14:25;;;;;;;51.00;35.80;;;;;;;7.24;72.97;100664.48;183311;1236;46084;-87
2024/03/08 12:18:30;;;;;;;45.00;31.00;;;;;;;7.25;74.03;100665.47;182961;1238;46081;-87
2024/03/08 12:22:32;;;;;;;44.70;30.40;;;;;;;7.33;70.74;100661.32;182682;1236;57888;-84
2024/03/08 12:26:36;;;;;;;51.20;35.40;;;;;;;7.35;71.27;100658.02;182662;1238;44075;-85
2024/03/08 12:30:50;;;;;;;51.30;31.40;;;;;;;7.45;71.97;100652.22;182014;1240;45974;-85
2024/03/08 12:34:53;;;;;;;50.40;31.90;;;;;;;7.51;70.66;100649.05;182430;1238;45880;-85
2024/03/08 12:38:56;;;;;;;40.00;27.70;;;;;;;7.60;68.70;100644.45;182229;1240;46146;-87
2024/03/08 12:42:59;;;;;;;53.90;33.60;;;;;;;7.61;69.64;100637.30;182945;1236;57995;-86
2024/03/08 12:47:01;;;;;;;46.40;32.80;;;;;;;7.76;70.78;100632.47;182419;1238;46028;-86
2024/03/08 12:51:03;;;;;;;49.90;27.20;;;;;;;7.89;71.68;100625.84;182428;1238;46178;-87
2024/03/08 12:55:06;;;;;;;58.00;30.90;;;;;;;7.93;70.30;100617.95;182116;1236;46016;-84
2024/03/08 12:59:10;;;;;;;36.40;27.80;;;;;;;8.04;68.50;100616.23;182912;1238;46098;-86
2024/03/08 13:03:11;;;;;;;38.90;28.30;;;;;;;8.07;67.61;100611.27;182923;1236;57898;-88
2024/03/08 13:07:16;;;;;;;38.20;28.40;;;;;;;8.14;67.40;100604.40;182798;1236;45987;-86
2024/03/08 13:11:19;;;;;;;38.00;25.80;;;;;;;8.13;65.38;100597.89;182691;1236;45986;-83
2024/03/08 13:15:21;;;;;;;41.70;28.10;;;;;;;8.11;66.19;100594.02;183044;1240;46269;-87
2024/03/08 13:19:23;;;;;;;42.30;28.30;;;;;;;8.12;64.72;100587.77;181904;1240;46095;-87
2024/03/08 13:23:26;;;;;;;44.60;29.60;;;;;;;8.15;66.65;100584.77;182261;1236;57771;-88
2024/03/08 13:27:28;;;;;;;41.80;27.60;;;;;;;8.15;65.31;100584.76;182640;1237;46092;-88
2024/03/08 13:31:30;;;;;;;43.40;30.30;;;;;;;8.20;65.89;100583.69;182607;1236;46092;-87
2024/03/08 13:35:32;;;;;;;37.00;28.40;;;;;;;8.31;68.21;100577.87;182227;1236;45884;-88
2024/03/08 13:39:40;;;;;;;39.40;28.10;;;;;;;8.46;67.31;100575.25;182461;1236;45963;-86
2024/03/08 13:43:42;;;;;;;41.40;25.70;;;;;;;8.52;67.53;100573.61;182497;1241;57193;-87
2024/03/08 13:47:46;;;;;;;42.40;26.60;;;;;;;8.53;66.62;100565.27;182817;1236;46021;-85
2024/03/08 13:51:49;;;;;;;45.90;29.80;;;;;;;8.49;64.18;100561.98;182591;1238;46080;-86
2024/03/08 13:55:51;;;;;;;39.70;28.30;;;;;;;8.54;66.22;100560.05;182403;1240;46071;-87
2024/03/08 13:59:53;;;;;;;48.20;30.30;;;;;;;8.43;66.24;100554.55;182052;1240;46022;-87
2024/03/08 14:03:55;;;;;;;36.30;25.60;;;;;;;8.50;66.78;100553.27;182433;1240;57880;-85
2024/03/08 14:07:57;;;;;;;33.90;24.60;;;;;;;8.54;65.49;100542.91;182539;1240;45926;-85
2024/03/08 14:11:59;;;;;;;45.40;28.40;;;;;;;8.53;66.35;100545.63;182680;1240;46025;-82
2024/03/08 14:16:01;;;;;;;32.40;24.60;;;;;;;8.66;66.44;100544.06;182858;1238;45995;-82
2024/03/08 14:20:03;;;;;;;56.40;35.60;;;;;;;8.70;64.96;100541.98;183097;1236;45130;-82
2024/03/08 14:24:06;;;;;;;55.40;31.80;;;;;;;8.77;66.42;100538.70;182633;1241;59247;-82
2024/03/08 14:28:08;;;;;;;38.40;24.40;;;;;;;8.78;66.74;100530.15;182822;1237;46010;-83
2024/03/08 14:32:10;;;;;;;43.80;24.60;;;;;;;8.81;66.25;100525.16;182630;1236;45977;-81
2024/03/08 14:36:13;;;;;;;40.10;27.10;;;;;;;8.79;65.41;100518.92;182225;1236;46109;-82
2024/03/08 14:40:15;;;;;;;36.60;23.70;;;;;;;8.77;65.41;100519.63;182860;1241;45999;-83
2024/03/08 14:44:19;;;;;;;35.80;24.60;;;;;;;8.70;64.88;100516.04;183070;1236;57321;-83
2024/03/08 14:48:21;;;;;;;33.20;24.50;;;;;;;8.66;65.83;100510.79;183076;1236;46841;-83
2024/03/08 14:52:29;;;;;;;35.00;23.60;;;;;;;8.65;65.32;100505.71;182832;1236;46037;-83
2024/03/08 14:56:32;;;;;;;38.00;25.20;;;;;;;8.66;66.14;100500.92;183645;1240;46019;-83
2024/03/08 15:00:34;;;;;;;33.40;22.90;;;;;;;8.63;66.30;100497.55;182958;1236;45990;-82
2024/03/08 15:04:36;;;;;;;38.60;24.60;;;;;;;8.60;66.62;100493.00;183779;1236;58427;-82
2024/03/08 15:08:42;;;;;;;33.40;23.30;;;;;;;8.67;67.59;100494.83;183192;1240;46210;-82
2024/03/08 15:12:46;;;;;;;45.70;28.90;;;;;;;8.64;67.58;100493.59;183090;1240;46023;-82
2024/03/08 15:16:52;;;;;;;40.20;26.60;;;;;;;8.64;69.88;100484.73;182652;1240;46156;-82
2024/03/08 15:20:55;;;;;;;37.80;26.50;;;;;;;8.66;68.86;100481.59;183053;1240;44053;-82
2024/03/08 15:24:58;;;;;;;42.20;28.70;;;;;;;8.68;69.50;100480.73;182450;1238;57848;-82
2024/03/08 15:29:00;;;;;;;52.60;32.30;;;;;;;8.62;69.97;100482.58;182630;1237;44814;-82
2024/03/08 15:33:03;;;;;;;56.30;33.60;;;;;;;8.54;69.73;100478.03;182562;1236;46170;-82
2024/03/08 15:37:05;;;;;;;54.20;35.10;;;;;;;8.52;70.73;100474.30;182282;1238;46131;-81
2024/03/08 15:41:10;;;;;;;40.50;29.30;;;;;;;8.47;70.05;100472.69;183311;1240;45703;-82
2024/03/08 15:45:12;;;;;;;45.20;29.30;;;;;;;8.37;71.16;100470.34;182820;1236;60580;-81
2024/03/08 15:49:14;;;;;;;40.70;26.20;;;;;;;8.24;72.00;100469.45;182439;1236;44367;-80
2024/03/08 15:53:16;;;;;;;32.10;22.50;;;;;;;8.12;73.39;100466.23;182879;1236;46098;-81
2024/03/08 15:57:20;;;;;;;33.80;22.30;;;;;;;7.94;73.62;100465.52;182405;1236;46087;-81
2024/03/08 16:01:22;;;;;;;37.00;24.50;;;;;;;7.84;74.69;100464.92;182736;1238;46093;-81
2024/03/08 16:05:24;;;;;;;32.70;23.80;;;;;;;7.78;75.08;100460.70;182699;1236;59815;-81
2024/03/08 16:09:25;;;;;;;33.10;24.80;;;;;;;7.65;76.66;100464.77;182429;1236;45137;-81
2024/03/08 16:13:27;;;;;;;35.20;24.60;;;;;;;7.55;75.79;100465.23;181725;1237;46097;-81
2024/03/08 16:17:29;;;;;;;29.30;18.30;;;;;;;7.48;76.32;100464.70;181817;1237;46548;-81
2024/03/08 16:21:33;;;;;;;36.20;25.70;;;;;;;7.33;78.29;100462.99;182154;1236;45993;-82
2024/03/08 16:25:36;;;;;;;35.20;24.50;;;;;;;7.22;78.98;100459.62;183018;1236;58037;-81
2024/03/08 16:29:38;;;;;;;38.60;23.50;;;;;;;7.14;79.69;100457.67;183929;1239;46045;-81
2024/03/08 16:33:40;;;;;;;37.80;25.80;;;;;;;7.05;80.51;100456.88;184313;1237;45869;-82
2024/03/08 16:37:42;;;;;;;31.70;24.60;;;;;;;6.95;81.15;100460.31;183484;1237;46099;-82
2024/03/08 16:41:44;;;;;;;38.80;26.20;;;;;;;6.78;83.29;100460.15;183695;1236;45818;-81
2024/03/08 16:45:55;;;;;;;31.20;23.20;;;;;;;6.56;85.38;100461.84;182993;1238;58476;-81
2024/03/08 16:49:57;;;;;;;34.10;24.20;;;;;;;6.41;86.68;100463.61;184197;1236;44234;-81
2024/03/08 16:54:01;;;;;;;41.70;28.30;;;;;;;6.22;88.33;100462.70;184082;1237;43966;-82
2024/03/08 16:58:08;;;;;;;41.10;26.60;;;;;;;6.11;88.60;100461.93;183080;1236;46028;-80
2024/03/08 17:02:10;;;;;;;46.10;30.70;;;;;;;6.05;88.01;100460.84;183328;1237;46006;-81
2024/03/08 17:06:12;;;;;;;42.00;27.80;;;;;;;6.02;87.77;100457.91;184153;1240;58283;-82
2024/03/08 17:10:20;;;;;;;42.40;27.20;;;;;;;5.96;87.63;100452.40;183722;1236;44421;-81
2024/03/08 17:14:22;;;;;;;38.90;28.10;;;;;;;5.89;88.07;100454.70;183522;1238;45849;-81
2024/03/08 17:18:25;;;;;;;41.10;28.90;;;;;;;5.81;88.56;100457.34;182207;1240;45960;-81
2024/03/08 17:22:28;;;;;;;39.40;28.40;;;;;;;5.71;89.51;100457.40;182884;1237;46090;-81
2024/03/08 17:26:30;;;;;;;44.50;29.90;;;;;;;5.57;90.63;100451.52;183247;1240;58175;-80
2024/03/08 17:30:32;;;;;;;53.50;34.00;;;;;;;5.48;90.07;100453.09;182245;1237;46095;-82
2024/03/08 17:34:35;;;;;;;44.70;30.90;;;;;;;5.44;89.66;100456.45;183246;1240;46096;-81
2024/03/08 17:38:43;;;;;;;68.90;38.80;;;;;;;5.43;89.46;100454.05;183594;1236;46054;-81
2024/03/08 17:43:06;;;;;;;55.40;36.70;;;;;;;5.40;89.66;100450.36;182252;1240;46526;-82
2024/03/08 17:47:08;;;;;;;48.60;30.20;;;;;;;5.38;89.76;100446.06;183362;1237;59904;-81
2024/03/08 17:51:12;;;;;;;48.60;32.00;;;;;;;5.33;89.99;100445.66;182881;1238;46239;-80
2024/03/08 17:55:15;;;;;;;58.10;36.20;;;;;;;5.29;90.01;100448.03;183396;1237;46073;-81
2024/03/08 17:59:17;;;;;;;84.00;53.10;;;;;;;5.18;90.20;100445.28;182688;1237;46200;-81
2024/03/08 18:03:19;;;;;;;61.90;36.30;;;;;;;5.06;90.47;100446.27;183087;1238;45983;-81
2024/03/08 18:07:21;;;;;;;55.40;33.60;;;;;;;4.94;91.07;100446.40;183633;1237;58130;-80
2024/03/08 18:11:23;;;;;;;65.40;38.30;;;;;;;4.87;91.60;100446.11;183393;1236;45812;-81
2024/03/08 18:15:26;;;;;;;61.20;40.10;;;;;;;4.81;92.16;100444.34;183854;1240;45931;-81
2024/03/08 18:19:28;;;;;;;62.40;40.80;;;;;;;4.80;92.44;100445.12;182779;1236;46093;-81